createdAt,value
2019-01-11T00:00:40.181Z,1.31
2019-01-11T00:01:44.236Z,1.31
2019-01-11T00:02:47.621Z,1.29
2019-01-11T00:03:50.900Z,1.25
2019-01-11T00:04:54.284Z,1.25
2019-01-11T00:05:57.577Z,1.36
2019-01-11T00:07:00.874Z,1.42
2019-01-11T00:08:04.738Z,1.38
2019-01-11T00:09:08.179Z,1.29
2019-01-11T00:10:11.593Z,1.34
2019-01-11T00:11:14.949Z,1.35
2019-01-11T00:12:18.226Z,1.38
2019-01-11T00:13:21.508Z,1.39
2019-01-11T00:14:24.896Z,1.41
2019-01-11T00:15:28.576Z,1.42
2019-01-11T00:16:31.874Z,1.45
2019-01-11T00:17:35.232Z,1.42
2019-01-11T00:18:38.535Z,1.41
2019-01-11T00:19:41.825Z,1.39
2019-01-11T00:20:45.247Z,1.36
2019-01-11T00:21:48.536Z,1.37
2019-01-11T00:22:51.874Z,1.43
2019-01-11T00:23:55.240Z,1.46
2019-01-11T00:24:58.920Z,1.47
2019-01-11T00:26:02.252Z,1.46
2019-01-11T00:27:05.553Z,1.47
2019-01-11T00:28:09.180Z,1.48
2019-01-11T00:29:12.595Z,1.51
2019-01-11T00:30:15.953Z,1.57
2019-01-11T00:31:19.329Z,1.52
2019-01-11T00:32:22.666Z,1.53
2019-01-11T00:33:26.304Z,1.50
2019-01-11T00:34:29.599Z,1.53
2019-01-11T00:35:32.885Z,1.52
2019-01-11T00:36:36.214Z,1.49
2019-01-11T00:37:39.504Z,1.51
2019-01-11T00:38:42.911Z,1.52
2019-01-11T00:39:46.268Z,1.47
2019-01-11T00:40:49.555Z,1.49
2019-01-11T00:41:52.849Z,1.47
2019-01-11T00:42:56.216Z,1.45
2019-01-11T00:43:59.864Z,1.40
2019-01-11T00:45:03.222Z,1.36
2019-01-11T00:46:06.842Z,1.37
2019-01-11T00:47:10.155Z,1.40
2019-01-11T00:48:13.439Z,1.48
2019-01-11T00:49:16.798Z,1.56
2019-01-11T00:50:21.856Z,1.53
2019-01-11T00:51:25.147Z,1.45
2019-01-11T00:52:28.469Z,1.45
2019-01-11T00:53:31.853Z,1.54
2019-01-11T00:54:35.212Z,1.57
2019-01-11T00:55:38.572Z,1.55
2019-01-11T00:56:41.858Z,1.56
2019-01-11T00:57:45.181Z,1.58
2019-01-11T00:58:48.536Z,1.59
2019-01-11T00:59:52.114Z,1.54
2019-01-11T01:00:55.397Z,1.53
2019-01-11T01:01:58.811Z,1.57
2019-01-11T01:03:02.124Z,1.56
2019-01-11T01:04:07.389Z,1.54
2019-01-11T01:05:10.496Z,1.50
2019-01-11T01:06:13.858Z,1.54
2019-01-11T01:07:17.228Z,1.60
2019-01-11T01:08:20.721Z,1.66
2019-01-11T01:09:23.999Z,1.59
2019-01-11T01:10:27.381Z,1.54
2019-01-11T01:11:30.637Z,1.56
2019-01-11T01:12:33.988Z,1.47
2019-01-11T01:13:37.385Z,1.52
2019-01-11T01:14:40.679Z,1.53
2019-01-11T01:15:44.139Z,1.53
2019-01-11T01:16:47.428Z,1.51
2019-01-11T01:17:51.420Z,1.48
2019-01-11T01:18:54.853Z,1.40
2019-01-11T01:19:58.145Z,1.27
2019-01-11T01:21:01.439Z,1.24
2019-01-11T01:22:04.734Z,1.23
2019-01-11T01:23:08.030Z,1.27
2019-01-11T01:24:11.326Z,1.26
2019-01-11T01:25:14.618Z,1.27
2019-01-11T01:26:18.995Z,1.28
2019-01-11T01:27:22.280Z,1.33
2019-01-11T01:28:26.004Z,1.35
2019-01-11T01:29:29.327Z,1.34
2019-01-11T01:30:32.709Z,1.36
2019-01-11T01:31:36.009Z,1.38
2019-01-11T01:32:39.298Z,1.39
2019-01-11T01:33:42.586Z,1.37
2019-01-11T01:34:46.318Z,1.38
2019-01-11T01:35:49.684Z,1.35
2019-01-11T01:36:53.230Z,1.35
2019-01-11T01:37:56.526Z,1.31
2019-01-11T01:38:59.818Z,1.29
2019-01-11T01:40:04.516Z,1.28
2019-01-11T01:41:07.810Z,1.29
2019-01-11T01:42:11.107Z,1.28
2019-01-11T01:43:14.393Z,1.29
2019-01-11T01:44:17.680Z,1.23
2019-01-11T01:45:21.082Z,1.35
2019-01-11T01:46:24.378Z,1.44
2019-01-11T01:47:27.702Z,1.48
2019-01-11T01:48:31.002Z,1.48
2019-01-11T01:49:34.346Z,1.42
2019-01-11T01:50:37.645Z,1.38
2019-01-11T01:51:40.925Z,1.37
2019-01-11T01:52:44.233Z,1.39
2019-01-11T01:53:47.720Z,1.37
2019-01-11T01:54:51.177Z,1.33
2019-01-11T01:55:54.474Z,1.28
2019-01-11T01:56:58.103Z,1.29
2019-01-11T01:58:01.510Z,1.33
2019-01-11T01:59:04.802Z,1.35
2019-01-11T02:00:11.405Z,1.32
2019-01-11T02:01:14.763Z,1.29
2019-01-11T02:02:18.070Z,1.25
2019-01-11T02:03:21.421Z,1.22
2019-01-11T02:04:24.820Z,1.17
2019-01-11T02:05:28.109Z,1.15
2019-01-11T02:06:31.415Z,1.08
2019-01-11T02:07:34.716Z,1.02
2019-01-11T02:08:37.999Z,1.07
2019-01-11T02:09:42.981Z,1.04
2019-01-11T02:10:46.366Z,1.05
2019-01-11T02:11:49.787Z,0.99
2019-01-11T02:12:53.157Z,0.96
2019-01-11T02:13:56.525Z,0.95
2019-01-11T02:15:00.192Z,0.95
2019-01-11T02:16:03.464Z,0.96
2019-01-11T02:17:06.818Z,0.95
2019-01-11T02:18:10.111Z,1.00
2019-01-11T02:19:13.414Z,1.08
2019-01-11T02:20:17.541Z,1.06
2019-01-11T02:21:20.826Z,1.06
2019-01-11T02:22:24.224Z,1.10
2019-01-11T02:23:27.506Z,1.08
2019-01-11T02:24:30.791Z,1.05
2019-01-11T02:25:34.085Z,1.03
2019-01-11T02:26:37.456Z,0.95
2019-01-11T02:27:40.784Z,0.93
2019-01-11T02:28:44.400Z,0.95
2019-01-11T02:29:47.751Z,0.93
2019-01-11T02:30:51.115Z,0.88
2019-01-11T02:31:54.525Z,0.91
2019-01-11T02:32:57.918Z,0.91
2019-01-11T02:34:01.207Z,0.93
2019-01-11T02:35:05.061Z,0.96
2019-01-11T02:36:08.714Z,0.94
2019-01-11T02:37:12.070Z,0.92
2019-01-11T02:38:15.466Z,0.94
2019-01-11T02:39:18.763Z,1.02
2019-01-11T02:40:22.043Z,1.07
2019-01-11T02:41:25.671Z,0.98
2019-01-11T02:42:28.959Z,0.89
2019-01-11T02:43:32.297Z,0.82
2019-01-11T02:44:37.303Z,0.78
2019-01-11T02:45:40.589Z,0.76
2019-01-11T02:46:43.874Z,0.78
2019-01-11T02:47:47.157Z,0.80
2019-01-11T02:48:50.471Z,0.85
2019-01-11T02:49:55.089Z,0.88
2019-01-11T02:50:58.583Z,0.93
2019-01-11T02:52:01.874Z,0.94
2019-01-11T02:53:05.161Z,0.95
2019-01-11T02:54:08.486Z,0.92
2019-01-11T02:55:11.881Z,0.93
2019-01-11T02:56:15.165Z,0.91
2019-01-11T02:57:18.453Z,0.93
2019-01-11T02:58:21.748Z,1.01
2019-01-11T02:59:25.140Z,1.06
2019-01-11T03:00:28.507Z,1.08
2019-01-11T03:01:31.789Z,1.09
2019-01-11T03:02:35.078Z,1.09
2019-01-11T03:03:38.359Z,1.09
2019-01-11T03:04:41.682Z,1.10
2019-01-11T03:05:44.991Z,1.05
2019-01-11T03:06:48.384Z,1.07
2019-01-11T03:07:51.667Z,1.10
2019-01-11T03:08:54.957Z,1.12
2019-01-11T03:09:58.285Z,1.14
2019-01-11T03:11:01.574Z,1.15
2019-01-11T03:12:04.870Z,1.16
2019-01-11T03:13:08.159Z,1.15
2019-01-11T03:14:11.510Z,1.14
2019-01-11T03:15:15.991Z,1.09
2019-01-11T03:16:19.386Z,1.04
2019-01-11T03:17:22.679Z,1.03
2019-01-11T03:18:25.985Z,1.02
2019-01-11T03:19:29.253Z,0.97
2019-01-11T03:20:32.544Z,0.95
2019-01-11T03:21:35.881Z,0.97
2019-01-11T03:22:39.183Z,1.00
2019-01-11T03:23:42.856Z,0.99
2019-01-11T03:24:46.522Z,0.96
2019-01-11T03:25:49.815Z,0.97
2019-01-11T03:26:53.139Z,0.97
2019-01-11T03:27:56.421Z,0.95
2019-01-11T03:28:59.721Z,0.90
2019-01-11T03:30:03.377Z,0.84
2019-01-11T03:31:08.314Z,0.81
2019-01-11T03:32:11.643Z,0.84
2019-01-11T03:33:14.924Z,0.84
2019-01-11T03:34:18.216Z,0.84
2019-01-11T03:35:21.501Z,0.84
2019-01-11T03:36:24.787Z,0.84
2019-01-11T03:37:28.110Z,0.84
2019-01-11T03:38:31.497Z,0.86
2019-01-11T03:39:34.798Z,0.87
2019-01-11T03:40:38.422Z,0.91
2019-01-11T03:41:43.355Z,0.94
2019-01-11T03:42:46.687Z,1.00
2019-01-11T03:43:49.950Z,1.07
2019-01-11T03:44:53.240Z,1.14
2019-01-11T03:45:56.525Z,1.19
2019-01-11T03:46:59.815Z,1.25
2019-01-11T03:48:03.560Z,1.28
2019-01-11T03:49:06.920Z,1.32
2019-01-11T03:50:12.527Z,1.36
2019-01-11T03:51:15.804Z,1.40
2019-01-11T03:52:19.459Z,1.46
2019-01-11T03:53:22.823Z,1.44
2019-01-11T03:54:26.080Z,1.28
2019-01-11T03:55:29.370Z,1.17
2019-01-11T03:56:32.660Z,1.11
2019-01-11T03:57:36.030Z,1.06
2019-01-11T03:58:39.347Z,1.00
2019-01-11T03:59:42.989Z,0.95
2019-01-11T04:00:46.278Z,0.93
2019-01-11T04:01:49.561Z,0.91
2019-01-11T04:02:52.918Z,0.89
2019-01-11T04:03:56.240Z,0.87
2019-01-11T04:04:59.528Z,0.80
2019-01-11T04:06:02.813Z,0.76
2019-01-11T04:07:06.100Z,0.69
2019-01-11T04:08:09.468Z,0.55
2019-01-11T04:09:12.809Z,0.51
2019-01-11T04:10:18.349Z,0.50
2019-01-11T04:11:21.649Z,0.59
2019-01-11T04:12:25.261Z,0.74
2019-01-11T04:13:30.576Z,0.82
2019-01-11T04:14:33.747Z,0.87
2019-01-11T04:15:37.105Z,0.79
2019-01-11T04:16:40.393Z,0.64
2019-01-11T04:17:43.749Z,0.56
2019-01-11T04:18:48.672Z,0.61
2019-01-11T04:19:52.007Z,0.60
2019-01-11T04:20:56.875Z,0.62
2019-01-11T04:22:01.801Z,0.58
2019-01-11T04:23:05.093Z,0.47
2019-01-11T04:24:08.446Z,0.39
2019-01-11T04:25:13.496Z,0.33
2019-01-11T04:26:16.785Z,0.23
2019-01-11T04:27:20.156Z,0.21
2019-01-11T04:28:23.584Z,0.23
2019-01-11T04:29:26.938Z,0.18
2019-01-11T04:30:30.256Z,0.14
2019-01-11T04:31:33.604Z,0.10
2019-01-11T04:32:36.951Z,0.14
2019-01-11T04:33:40.236Z,0.18
2019-01-11T04:34:43.544Z,0.19
2019-01-11T04:35:46.855Z,0.11
2019-01-11T04:36:50.136Z,0.09
2019-01-11T04:37:53.529Z,0.01
2019-01-11T04:38:56.815Z,-0.04
2019-01-11T04:40:00.106Z,-0.02
2019-01-11T04:41:03.914Z,-0.05
2019-01-11T04:42:07.284Z,-0.08
2019-01-11T04:43:10.666Z,-0.04
2019-01-11T04:44:14.461Z,-0.09
2019-01-11T04:45:17.920Z,-0.17
2019-01-11T04:46:21.246Z,-0.16
2019-01-11T04:47:24.627Z,-0.21
2019-01-11T04:48:27.905Z,-0.28
2019-01-11T04:49:31.195Z,-0.31
2019-01-11T04:50:34.491Z,-0.36
2019-01-11T04:51:37.823Z,-0.34
2019-01-11T04:52:41.143Z,-0.34
2019-01-11T04:53:44.498Z,-0.16
2019-01-11T04:54:47.784Z,0.02
2019-01-11T04:55:51.074Z,0.12
2019-01-11T04:56:54.387Z,0.14
2019-01-11T04:57:58.028Z,0.15
2019-01-11T04:59:01.424Z,0.10
2019-01-11T05:00:11.218Z,0.02
2019-01-11T05:01:14.570Z,0.02
2019-01-11T05:02:17.856Z,-0.01
2019-01-11T05:03:21.478Z,-0.06
2019-01-11T05:04:24.841Z,0.03
2019-01-11T05:05:28.129Z,0.06
2019-01-11T05:06:31.492Z,-0.01
2019-01-11T05:07:34.829Z,-0.07
2019-01-11T05:08:38.123Z,-0.17
2019-01-11T05:09:41.409Z,-0.24
2019-01-11T05:10:44.725Z,-0.27
2019-01-11T05:11:48.018Z,-0.29
2019-01-11T05:12:51.409Z,-0.31
2019-01-11T05:13:54.766Z,-0.29
2019-01-11T05:14:58.065Z,-0.21
2019-01-11T05:16:01.425Z,-0.18
2019-01-11T05:17:04.710Z,-0.18
2019-01-11T05:18:08.047Z,-0.23
2019-01-11T05:19:11.336Z,-0.24
2019-01-11T05:20:17.138Z,-0.25
2019-01-11T05:21:20.834Z,-0.24
2019-01-11T05:22:24.129Z,-0.27
2019-01-11T05:23:27.534Z,-0.27
2019-01-11T05:24:30.834Z,-0.22
2019-01-11T05:25:34.121Z,-0.21
2019-01-11T05:26:37.467Z,-0.13
2019-01-11T05:27:40.764Z,-0.18
2019-01-11T05:28:44.077Z,-0.12
2019-01-11T05:29:47.356Z,-0.05
2019-01-11T05:30:50.946Z,-0.14
2019-01-11T05:31:54.573Z,-0.14
2019-01-11T05:32:57.869Z,-0.24
2019-01-11T05:34:01.166Z,-0.28
2019-01-11T05:35:05.971Z,-0.27
2019-01-11T05:36:09.329Z,-0.22
2019-01-11T05:37:12.680Z,-0.23
2019-01-11T05:38:15.974Z,-0.22
2019-01-11T05:39:19.390Z,-0.17
2019-01-11T05:40:22.649Z,-0.14
2019-01-11T05:41:25.961Z,-0.08
2019-01-11T05:42:29.219Z,0.02
2019-01-11T05:43:32.565Z,0.06
2019-01-11T05:44:35.885Z,0.07
2019-01-11T05:45:39.167Z,0.07
2019-01-11T05:46:46.837Z,0.07
2019-01-11T05:47:50.326Z,0.01
2019-01-11T05:48:53.762Z,-0.09
2019-01-11T05:49:57.082Z,-0.03
2019-01-11T05:51:00.378Z,-0.05
2019-01-11T05:52:03.680Z,0.05
2019-01-11T05:53:06.960Z,0.06
2019-01-11T05:54:10.257Z,0.03
2019-01-11T05:55:15.230Z,0.05
2019-01-11T05:56:19.292Z,0.19
2019-01-11T05:57:22.598Z,0.21
2019-01-11T05:58:32.127Z,0.17
2019-01-11T05:59:35.786Z,0.14
2019-01-11T06:00:39.087Z,0.25
2019-01-11T06:01:42.382Z,0.29
2019-01-11T06:02:45.816Z,0.33
2019-01-11T06:03:49.161Z,0.28
2019-01-11T06:04:52.544Z,0.25
2019-01-11T06:05:55.868Z,0.22
2019-01-11T06:07:01.821Z,0.26
2019-01-11T06:08:06.701Z,0.18
2019-01-11T06:09:09.984Z,0.21
2019-01-11T06:10:14.958Z,0.16
2019-01-11T06:11:18.242Z,0.14
2019-01-11T06:12:22.597Z,0.25
2019-01-11T06:13:25.879Z,0.18
2019-01-11T06:14:29.561Z,0.14
2019-01-11T06:15:32.874Z,0.14
2019-01-11T06:16:36.503Z,0.18
2019-01-11T06:17:39.861Z,0.17
2019-01-11T06:18:43.130Z,0.22
2019-01-11T06:19:46.559Z,0.25
2019-01-11T06:20:50.354Z,0.23
2019-01-11T06:21:53.727Z,0.19
2019-01-11T06:22:57.367Z,0.16
2019-01-11T06:24:02.693Z,0.20
2019-01-11T06:25:06.355Z,0.24
2019-01-11T06:26:09.740Z,0.16
2019-01-11T06:27:13.029Z,0.11
2019-01-11T06:28:16.323Z,0.12
2019-01-11T06:29:19.937Z,0.19
2019-01-11T06:30:23.592Z,0.24
2019-01-11T06:31:27.002Z,0.17
2019-01-11T06:32:30.282Z,0.07
2019-01-11T06:33:33.629Z,-0.01
2019-01-11T06:34:36.988Z,0.04
2019-01-11T06:35:40.344Z,0.11
2019-01-11T06:36:43.652Z,0.03
2019-01-11T06:37:47.409Z,-0.05
2019-01-11T06:38:50.702Z,-0.08
2019-01-11T06:39:54.005Z,-0.11
2019-01-11T06:40:58.920Z,-0.11
2019-01-11T06:42:05.574Z,-0.11
2019-01-11T06:43:09.024Z,-0.13
2019-01-11T06:44:12.634Z,-0.14
2019-01-11T06:45:16.262Z,-0.02
2019-01-11T06:46:21.551Z,0.01
2019-01-11T06:47:24.960Z,0.00
2019-01-11T06:48:29.886Z,-0.05
2019-01-11T06:49:33.165Z,-0.10
2019-01-11T06:50:36.680Z,-0.06
2019-01-11T06:51:39.987Z,0.04
2019-01-11T06:52:43.389Z,0.12
2019-01-11T06:53:46.728Z,0.10
2019-01-11T06:54:50.086Z,0.10
2019-01-11T06:55:53.378Z,0.06
2019-01-11T06:56:56.732Z,0.03
2019-01-11T06:58:00.088Z,0.06
2019-01-11T06:59:04.970Z,0.03
2019-01-11T07:00:16.893Z,0.11
2019-01-11T07:01:21.350Z,0.15
2019-01-11T07:02:24.706Z,0.13
2019-01-11T07:03:28.096Z,0.16
2019-01-11T07:04:31.452Z,0.19
2019-01-11T07:05:35.277Z,0.12
2019-01-11T07:06:49.511Z,0.07
2019-01-11T07:07:52.865Z,-0.03
2019-01-11T07:08:56.619Z,0.00
2019-01-11T07:10:00.132Z,0.03
2019-01-11T07:11:03.943Z,0.04
2019-01-11T07:12:07.224Z,0.05
2019-01-11T07:13:10.510Z,0.11
2019-01-11T07:14:13.907Z,0.15
2019-01-11T07:15:17.686Z,0.12
2019-01-11T07:16:20.980Z,0.22
2019-01-11T07:17:24.260Z,0.21
2019-01-11T07:18:27.946Z,0.25
2019-01-11T07:19:32.633Z,0.28
2019-01-11T07:20:36.221Z,0.24
2019-01-11T07:21:41.060Z,0.30
2019-01-11T07:22:44.381Z,0.32
2019-01-11T07:23:47.660Z,0.33
2019-01-11T07:24:50.988Z,0.24
2019-01-11T07:25:54.273Z,0.27
2019-01-11T07:26:57.725Z,0.24
2019-01-11T07:28:02.186Z,0.29
2019-01-11T07:29:05.573Z,0.28
2019-01-11T07:30:12.272Z,0.33
2019-01-11T07:31:15.799Z,0.38
2019-01-11T07:32:19.229Z,0.47
2019-01-11T07:33:23.485Z,0.57
2019-01-11T07:34:28.473Z,0.56
2019-01-11T07:35:33.466Z,0.53
2019-01-11T07:36:36.991Z,0.55
2019-01-11T07:37:40.286Z,0.55
2019-01-11T07:38:52.425Z,0.64
2019-01-11T07:39:55.705Z,0.66
2019-01-11T07:40:58.987Z,0.52
2019-01-11T07:42:02.282Z,0.58
2019-01-11T07:43:05.567Z,0.56
2019-01-11T07:44:08.874Z,0.54
2019-01-11T07:45:13.315Z,0.59
2019-01-11T07:46:16.710Z,0.61
2019-01-11T07:47:20.424Z,0.44
2019-01-11T07:48:23.793Z,0.34
2019-01-11T07:49:27.089Z,0.37
2019-01-11T07:50:30.691Z,0.41
2019-01-11T07:51:33.979Z,0.48
2019-01-11T07:52:37.264Z,0.58
2019-01-11T07:53:40.629Z,0.73
2019-01-11T07:54:44.154Z,0.76
2019-01-11T07:55:47.402Z,0.76
2019-01-11T07:56:50.972Z,0.77
2019-01-11T07:57:54.256Z,0.77
2019-01-11T07:58:57.537Z,0.78
2019-01-11T08:00:01.142Z,0.76
2019-01-11T08:01:04.530Z,0.82
2019-01-11T08:02:07.875Z,0.81
2019-01-11T08:03:11.171Z,0.82
2019-01-11T08:04:14.456Z,0.78
2019-01-11T08:05:17.789Z,0.77
2019-01-11T08:06:21.087Z,0.77
2019-01-11T08:07:24.441Z,0.79
2019-01-11T08:08:27.725Z,0.80
2019-01-11T08:09:31.171Z,0.90
2019-01-11T08:10:34.482Z,0.87
2019-01-11T08:11:37.770Z,0.90
2019-01-11T08:12:41.061Z,0.94
2019-01-11T08:13:44.346Z,0.89
2019-01-11T08:14:47.782Z,0.88
2019-01-11T08:15:51.106Z,0.94
2019-01-11T08:16:54.410Z,0.90
2019-01-11T08:17:57.686Z,0.87
2019-01-11T08:19:01.130Z,0.99
2019-01-11T08:20:05.645Z,1.11
2019-01-11T08:21:10.560Z,1.17
2019-01-11T08:22:15.533Z,1.19
2019-01-11T08:23:18.895Z,1.28
2019-01-11T08:24:22.312Z,1.22
2019-01-11T08:25:25.570Z,1.29
2019-01-11T08:26:28.857Z,1.36
2019-01-11T08:27:32.141Z,1.41
2019-01-11T08:28:35.531Z,1.48
2019-01-11T08:29:38.881Z,1.54
2019-01-11T08:30:42.174Z,1.58
2019-01-11T08:31:45.469Z,1.64
2019-01-11T08:32:48.747Z,1.68
2019-01-11T08:33:52.958Z,1.64
2019-01-11T08:34:56.244Z,1.57
2019-01-11T08:35:59.741Z,1.66
2019-01-11T08:37:03.197Z,1.66
2019-01-11T08:38:06.490Z,1.62
2019-01-11T08:39:09.813Z,1.58
2019-01-11T08:40:13.278Z,1.58
2019-01-11T08:41:16.576Z,1.47
2019-01-11T08:42:19.908Z,1.54
2019-01-11T08:43:23.204Z,1.68
2019-01-11T08:44:26.529Z,1.74
2019-01-11T08:45:30.135Z,1.67
2019-01-11T08:46:33.414Z,1.59
2019-01-11T08:47:36.762Z,1.59
2019-01-11T08:48:40.114Z,1.67
2019-01-11T08:49:43.817Z,1.73
2019-01-11T08:50:48.778Z,1.71
2019-01-11T08:51:52.054Z,1.77
2019-01-11T08:52:56.123Z,1.83
2019-01-11T08:53:59.481Z,1.91
2019-01-11T08:55:02.801Z,2.09
2019-01-11T08:56:08.413Z,2.12
2019-01-11T08:57:11.170Z,2.18
2019-01-11T08:58:14.458Z,2.20
2019-01-11T08:59:17.748Z,2.22
2019-01-11T09:00:21.110Z,2.23
2019-01-11T09:01:24.466Z,2.31
2019-01-11T09:02:27.763Z,2.33
2019-01-11T09:03:32.682Z,2.42
2019-01-11T09:04:35.972Z,2.63
2019-01-11T09:05:39.366Z,2.74
2019-01-11T09:06:42.652Z,2.76
2019-01-11T09:07:46.034Z,2.70
2019-01-11T09:08:49.747Z,2.78
2019-01-11T09:09:53.039Z,2.86
2019-01-11T09:10:56.365Z,2.88
2019-01-11T09:11:59.684Z,2.89
2019-01-11T09:13:03.068Z,2.85
2019-01-11T09:14:08.332Z,2.85
2019-01-11T09:15:12.010Z,2.88
2019-01-11T09:16:20.607Z,2.89
2019-01-11T09:17:20.795Z,2.94
2019-01-11T09:18:25.808Z,2.98
2019-01-11T09:19:29.079Z,2.89
2019-01-11T09:20:32.375Z,2.89
2019-01-11T09:21:41.465Z,2.88
2019-01-11T09:22:40.852Z,2.79
2019-01-11T09:23:44.137Z,2.67
2019-01-11T09:24:47.422Z,2.67
2019-01-11T09:25:50.723Z,2.71
2019-01-11T09:26:54.052Z,2.72
2019-01-11T09:27:57.370Z,2.73
2019-01-11T09:29:03.002Z,2.72
2019-01-11T09:30:09.120Z,2.62
2019-01-11T09:31:12.978Z,2.62
2019-01-11T09:32:16.283Z,2.68
2019-01-11T09:33:20.562Z,2.79
2019-01-11T09:34:24.534Z,2.80
2019-01-11T09:35:27.829Z,2.84
2019-01-11T09:36:31.122Z,2.90
2019-01-11T09:37:34.501Z,3.00
2019-01-11T09:38:37.757Z,2.99
2019-01-11T09:39:41.099Z,3.01
2019-01-11T09:40:44.634Z,2.98
2019-01-11T09:41:47.915Z,3.04
2019-01-11T09:42:51.391Z,3.11
2019-01-11T09:43:54.746Z,3.20
2019-01-11T09:44:58.035Z,3.15
2019-01-11T09:46:01.320Z,3.20
2019-01-11T09:47:04.661Z,3.25
2019-01-11T09:48:08.005Z,3.13
2019-01-11T09:49:11.386Z,3.26
2019-01-11T09:50:14.749Z,3.38
2019-01-11T09:51:18.057Z,3.47
2019-01-11T09:52:21.423Z,3.53
2019-01-11T09:53:24.744Z,3.49
2019-01-11T09:54:28.034Z,3.25
2019-01-11T09:55:31.392Z,3.35
2019-01-11T09:56:34.791Z,3.46
2019-01-11T09:57:38.150Z,3.49
2019-01-11T09:58:41.522Z,3.38
2019-01-11T09:59:44.924Z,3.25
2019-01-11T10:00:48.350Z,3.16
2019-01-11T10:01:53.278Z,3.13
2019-01-11T10:03:01.057Z,3.14
2019-01-11T10:04:04.542Z,3.12
2019-01-11T10:05:09.014Z,3.12
2019-01-11T10:06:12.417Z,3.22
2019-01-11T10:07:20.044Z,3.30
2019-01-11T10:08:23.505Z,3.24
2019-01-11T10:09:26.858Z,3.22
2019-01-11T10:10:30.148Z,3.12
2019-01-11T10:11:33.469Z,3.07
2019-01-11T10:12:36.778Z,3.02
2019-01-11T10:13:40.336Z,3.15
2019-01-11T10:14:43.618Z,3.21
2019-01-11T10:15:46.911Z,3.21
2019-01-11T10:16:50.274Z,3.11
2019-01-11T10:17:53.822Z,3.09
2019-01-11T10:18:57.117Z,3.31
2019-01-11T10:20:00.398Z,3.34
2019-01-11T10:21:03.702Z,3.28
2019-01-11T10:22:07.058Z,3.37
2019-01-11T10:23:10.364Z,3.48
2019-01-11T10:24:13.691Z,3.55
2019-01-11T10:25:17.045Z,3.68
2019-01-11T10:26:20.337Z,3.79
2019-01-11T10:27:24.000Z,3.81
2019-01-11T10:28:27.300Z,3.99
2019-01-11T10:29:30.636Z,4.09
2019-01-11T10:30:33.919Z,4.21
2019-01-11T10:31:37.547Z,4.37
2019-01-11T10:32:40.973Z,4.56
2019-01-11T10:33:44.363Z,4.73
2019-01-11T10:34:47.689Z,4.78
2019-01-11T10:35:53.340Z,4.87
2019-01-11T10:36:56.618Z,5.04
2019-01-11T10:37:59.952Z,5.14
2019-01-11T10:39:03.988Z,5.30
2019-01-11T10:40:11.796Z,5.39
2019-01-11T10:41:15.065Z,5.57
2019-01-11T10:42:18.511Z,5.70
2019-01-11T10:43:21.964Z,5.73
2019-01-11T10:44:25.266Z,5.65
2019-01-11T10:45:28.648Z,5.70
2019-01-11T10:46:35.770Z,5.63
2019-01-11T10:47:39.045Z,5.64
2019-01-11T10:48:42.325Z,5.71
2019-01-11T10:49:45.615Z,5.76
2019-01-11T10:50:48.958Z,5.80
2019-01-11T10:51:52.253Z,5.83
2019-01-11T10:52:55.801Z,5.82
2019-01-11T10:53:59.081Z,5.86
2019-01-11T10:55:02.380Z,5.86
2019-01-11T10:56:05.689Z,5.83
2019-01-11T10:57:09.037Z,5.87
2019-01-11T10:58:12.318Z,5.97
2019-01-11T10:59:17.119Z,5.88
2019-01-11T11:00:24.610Z,5.89
2019-01-11T11:01:27.966Z,5.93
2019-01-11T11:02:31.250Z,6.06
2019-01-11T11:03:34.649Z,6.20
2019-01-11T11:04:38.013Z,6.26
2019-01-11T11:05:41.309Z,6.15
2019-01-11T11:06:44.742Z,6.02
2019-01-11T11:07:48.029Z,5.90
2019-01-11T11:08:51.310Z,5.68
2019-01-11T11:09:54.652Z,5.33
2019-01-11T11:10:58.002Z,5.30
2019-01-11T11:12:01.409Z,4.99
2019-01-11T11:13:04.701Z,4.74
2019-01-11T11:14:08.112Z,4.73
2019-01-11T11:15:13.747Z,4.86
2019-01-11T11:16:17.030Z,4.75
2019-01-11T11:17:20.349Z,4.42
2019-01-11T11:18:23.776Z,4.21
2019-01-11T11:19:27.143Z,4.06
2019-01-11T11:20:30.500Z,3.96
2019-01-11T11:21:34.790Z,3.96
2019-01-11T11:22:38.286Z,4.13
2019-01-11T11:23:43.147Z,4.18
2019-01-11T11:24:46.460Z,4.20
2019-01-11T11:25:49.744Z,4.18
2019-01-11T11:26:53.100Z,4.25
2019-01-11T11:27:56.431Z,4.15
2019-01-11T11:28:59.720Z,4.12
2019-01-11T11:30:03.016Z,4.12
2019-01-11T11:31:06.307Z,4.01
2019-01-11T11:32:12.791Z,3.88
2019-01-11T11:33:21.245Z,3.86
2019-01-11T11:34:25.484Z,3.88
2019-01-11T11:35:30.309Z,3.98
2019-01-11T11:36:33.600Z,4.01
2019-01-11T11:37:36.891Z,4.08
2019-01-11T11:38:40.216Z,3.93
2019-01-11T11:39:43.533Z,3.92
2019-01-11T11:40:47.180Z,3.96
2019-01-11T11:41:50.562Z,3.96
2019-01-11T11:42:53.902Z,3.94
2019-01-11T11:43:57.299Z,3.83
2019-01-11T11:45:00.600Z,3.78
2019-01-11T11:46:03.974Z,3.92
2019-01-11T11:47:07.274Z,3.95
2019-01-11T11:48:10.639Z,4.03
2019-01-11T11:49:14.285Z,4.00
2019-01-11T11:50:17.581Z,4.10
2019-01-11T11:51:20.936Z,4.28
2019-01-11T11:52:24.413Z,4.36
2019-01-11T11:53:27.746Z,4.38
2019-01-11T11:54:31.075Z,4.42
2019-01-11T11:55:34.376Z,4.47
2019-01-11T11:56:37.668Z,4.40
2019-01-11T11:57:40.962Z,4.44
2019-01-11T11:58:44.249Z,4.45
2019-01-11T11:59:47.639Z,4.52
2019-01-11T12:00:50.943Z,4.60
2019-01-11T12:01:54.222Z,4.53
2019-01-11T12:02:57.568Z,4.61
2019-01-11T12:04:00.820Z,4.66
2019-01-11T12:05:06.674Z,4.68
2019-01-11T12:06:09.965Z,4.63
2019-01-11T12:07:13.263Z,4.63
2019-01-11T12:08:16.569Z,4.71
2019-01-11T12:09:19.867Z,4.84
2019-01-11T12:10:23.568Z,4.88
2019-01-11T12:11:26.933Z,4.87
2019-01-11T12:12:31.427Z,4.86
2019-01-11T12:13:34.961Z,4.72
2019-01-11T12:14:38.308Z,4.72
2019-01-11T12:15:41.637Z,4.75
2019-01-11T12:16:44.931Z,4.82
2019-01-11T12:17:48.230Z,4.86
2019-01-11T12:18:51.564Z,4.90
2019-01-11T12:19:57.145Z,5.01
2019-01-11T12:21:00.069Z,5.07
2019-01-11T12:22:03.365Z,5.04
2019-01-11T12:23:06.636Z,5.11
2019-01-11T12:24:09.924Z,5.18
2019-01-11T12:25:13.204Z,5.04
2019-01-11T12:26:16.669Z,5.04
2019-01-11T12:27:20.005Z,5.08
2019-01-11T12:28:23.285Z,5.11
2019-01-11T12:29:26.794Z,5.06
2019-01-11T12:30:30.077Z,5.04
2019-01-11T12:31:33.537Z,5.15
2019-01-11T12:32:36.831Z,5.37
2019-01-11T12:33:40.112Z,5.40
2019-01-11T12:34:43.381Z,5.35
2019-01-11T12:35:46.690Z,5.53
2019-01-11T12:36:49.994Z,5.63
2019-01-11T12:37:53.287Z,5.72
2019-01-11T12:38:56.561Z,5.74
2019-01-11T12:39:59.848Z,5.81
2019-01-11T12:41:03.133Z,5.80
2019-01-11T12:42:06.450Z,5.81
2019-01-11T12:43:12.077Z,5.83
2019-01-11T12:44:15.427Z,5.78
2019-01-11T12:45:18.817Z,5.72
2019-01-11T12:46:22.260Z,5.80
2019-01-11T12:47:25.595Z,5.86
2019-01-11T12:48:28.998Z,5.95
2019-01-11T12:49:32.349Z,5.93
2019-01-11T12:50:36.130Z,5.92
2019-01-11T12:51:39.424Z,5.94
2019-01-11T12:52:42.707Z,5.95
2019-01-11T12:53:46.086Z,5.83
2019-01-11T12:54:50.747Z,5.84
2019-01-11T12:55:54.049Z,5.84
2019-01-11T12:56:57.361Z,5.95
2019-01-11T12:58:00.638Z,5.94
2019-01-11T12:59:04.332Z,5.82
2019-01-11T13:00:13.465Z,5.92
2019-01-11T13:01:16.747Z,5.92
2019-01-11T13:02:20.027Z,5.91
2019-01-11T13:03:23.448Z,5.94
2019-01-11T13:04:27.073Z,5.93
2019-01-11T13:05:30.365Z,6.04
2019-01-11T13:06:33.718Z,5.92
2019-01-11T13:07:37.008Z,6.05
2019-01-11T13:08:40.294Z,6.14
2019-01-11T13:09:43.622Z,6.05
2019-01-11T13:10:46.905Z,6.08
2019-01-11T13:11:50.189Z,6.13
2019-01-11T13:12:53.611Z,6.09
2019-01-11T13:13:56.888Z,6.00
2019-01-11T13:15:00.287Z,6.02
2019-01-11T13:16:03.672Z,6.01
2019-01-11T13:17:07.033Z,6.09
2019-01-11T13:18:10.311Z,5.95
2019-01-11T13:19:13.638Z,5.92
2019-01-11T13:20:19.152Z,5.94
2019-01-11T13:21:22.819Z,5.95
2019-01-11T13:22:26.109Z,5.95
2019-01-11T13:23:29.406Z,5.98
2019-01-11T13:24:32.762Z,6.06
2019-01-11T13:25:36.073Z,6.11
2019-01-11T13:26:39.436Z,6.10
2019-01-11T13:27:42.720Z,6.15
2019-01-11T13:28:46.001Z,6.24
2019-01-11T13:29:49.288Z,6.30
2019-01-11T13:30:52.609Z,6.31
2019-01-11T13:31:55.959Z,6.21
2019-01-11T13:32:59.289Z,6.01
2019-01-11T13:34:02.538Z,6.07
2019-01-11T13:35:06.917Z,6.07
2019-01-11T13:36:11.882Z,5.94
2019-01-11T13:37:15.252Z,5.84
2019-01-11T13:38:18.747Z,5.73
2019-01-11T13:39:22.031Z,5.80
2019-01-11T13:40:25.317Z,5.79
2019-01-11T13:41:28.642Z,5.75
2019-01-11T13:42:31.949Z,5.67
2019-01-11T13:43:35.226Z,5.44
2019-01-11T13:44:38.502Z,5.42
2019-01-11T13:45:41.781Z,5.35
2019-01-11T13:46:45.112Z,5.30
2019-01-11T13:47:48.402Z,5.37
2019-01-11T13:48:51.685Z,5.44
2019-01-11T13:49:54.966Z,5.39
2019-01-11T13:50:58.625Z,5.27
2019-01-11T13:52:07.109Z,5.27
2019-01-11T13:53:08.291Z,5.24
2019-01-11T13:54:11.566Z,5.21
2019-01-11T13:55:14.847Z,5.24
2019-01-11T13:56:18.199Z,5.23
2019-01-11T13:57:21.505Z,5.21
2019-01-11T13:58:24.857Z,5.33
2019-01-11T13:59:28.202Z,5.38
2019-01-11T14:00:31.483Z,5.45
2019-01-11T14:01:34.773Z,5.53
2019-01-11T14:02:38.074Z,5.56
2019-01-11T14:03:41.357Z,5.43
2019-01-11T14:04:44.705Z,5.33